createdAt,value
2022-09-06T00:00:42.747Z,101352.47
2022-09-06T00:03:09.770Z,101349.53
2022-09-06T00:05:37.056Z,101350.78
2022-09-06T00:08:05.604Z,101347.22
2022-09-06T00:10:32.891Z,101344.28
2022-09-06T00:13:04.785Z,101352.28
2022-09-06T00:15:31.684Z,101348.09
2022-09-06T00:17:59.736Z,101354.63
2022-09-06T00:20:27.423Z,101354.41
2022-09-06T00:23:02.777Z,101341.34
2022-09-06T00:25:30.729Z,101329.09
2022-09-06T00:27:58.642Z,101339.66
2022-09-06T00:30:26.284Z,101331.66
2022-09-06T00:32:54.209Z,101337.59
2022-09-06T00:35:24.642Z,101330.19
2022-09-06T00:37:52.360Z,101327.44
2022-09-06T00:40:18.937Z,101322.41
2022-09-06T00:42:45.465Z,101330.19
2022-09-06T00:45:12.599Z,101331.03
2022-09-06T00:47:41.639Z,101321.31
2022-09-06T00:50:10.493Z,101324.69
2022-09-06T00:52:39.209Z,101322.16
2022-09-06T00:55:06.721Z,101323.44
2022-09-06T00:57:34.969Z,101323.44
2022-09-06T01:00:04.285Z,101322.41
2022-09-06T01:02:31.031Z,101323.44
2022-09-06T01:04:57.972Z,101322.63
2022-09-06T01:07:53.159Z,101313.31
2022-09-06T01:11:12.495Z,101324.09
2022-09-06T01:14:04.026Z,101319.25
2022-09-06T01:16:39.188Z,101323.03
2022-09-06T01:19:43.773Z,101321.97
2022-09-06T01:22:36.285Z,101324.25
2022-09-06T01:25:45.041Z,101314.56
2022-09-06T01:28:29.707Z,101316.44
2022-09-06T01:31:08.670Z,101322.09
2022-09-06T01:33:47.211Z,101326.72
2022-09-06T01:36:18.955Z,101333.41
2022-09-06T01:38:45.563Z,101337.00
2022-09-06T01:41:12.209Z,101332.75
2022-09-06T01:43:43.431Z,101334.69
2022-09-06T01:46:25.210Z,101330.84
2022-09-06T01:49:14.338Z,101334.69
2022-09-06T01:51:56.263Z,101334.25
2022-09-06T01:54:25.714Z,101336.59
2022-09-06T01:57:17.477Z,101338.47
2022-09-06T02:00:09.194Z,101342.50
2022-09-06T02:02:53.574Z,101342.25
2022-09-06T02:05:30.843Z,101337.59
2022-09-06T02:08:40.046Z,101335.47
2022-09-06T02:11:09.265Z,101339.25
2022-09-06T02:13:47.926Z,101342.84
2022-09-06T02:16:22.809Z,101336.75
2022-09-06T02:18:56.077Z,101343.03
2022-09-06T02:21:29.732Z,101339.06
2022-09-06T02:23:59.968Z,101336.97
2022-09-06T02:26:30.544Z,101333.78
2022-09-06T02:28:57.679Z,101330.38
2022-09-06T02:31:29.913Z,101330.34
2022-09-06T02:33:56.999Z,101328.19
2022-09-06T02:36:24.325Z,101334.06
2022-09-06T02:38:51.080Z,101328.78
2022-09-06T02:41:24.093Z,101327.28
2022-09-06T02:43:50.735Z,101326.00
2022-09-06T02:46:17.515Z,101330.19
2022-09-06T02:48:44.122Z,101322.19
2022-09-06T02:51:11.016Z,101315.03
2022-09-06T02:53:37.866Z,101315.03
2022-09-06T02:56:04.839Z,101318.38
2022-09-06T02:58:31.399Z,101319.03
2022-09-06T03:00:58.262Z,101317.75
2022-09-06T03:03:25.069Z,101320.09
2022-09-06T03:05:52.901Z,101317.59
2022-09-06T03:08:21.114Z,101315.66
2022-09-06T03:10:52.576Z,101314.00
2022-09-06T03:13:19.442Z,101326.59
2022-09-06T03:15:53.999Z,101324.50
2022-09-06T03:18:20.620Z,101322.78
2022-09-06T03:20:49.593Z,101325.53
2022-09-06T03:23:17.495Z,101320.06
2022-09-06T03:25:44.620Z,101315.03
2022-09-06T03:28:11.432Z,101322.84
2022-09-06T03:30:38.039Z,101310.41
2022-09-06T03:33:04.650Z,101315.50
2022-09-06T03:35:31.502Z,101318.00
2022-09-06T03:37:58.046Z,101304.09
2022-09-06T03:40:24.592Z,101324.78
2022-09-06T03:42:51.170Z,101324.78
2022-09-06T03:45:17.835Z,101317.41
2022-09-06T03:47:44.407Z,101311.31
2022-09-06T03:50:10.944Z,101306.66
2022-09-06T03:52:37.609Z,101308.75
2022-09-06T03:55:05.752Z,101301.81
2022-09-06T03:57:32.284Z,101301.34
2022-09-06T03:59:58.845Z,101306.00
2022-09-06T04:02:25.462Z,101304.72
2022-09-06T04:04:55.447Z,101296.03
2022-09-06T04:07:23.039Z,101301.50
2022-09-06T04:09:49.662Z,101292.50
2022-09-06T04:12:16.239Z,101291.44
2022-09-06T04:14:42.805Z,101290.19
2022-09-06T04:17:09.350Z,101291.69
2022-09-06T04:19:35.922Z,101300.31
2022-09-06T04:22:02.432Z,101297.16
2022-09-06T04:24:28.976Z,101294.44
2022-09-06T04:26:55.539Z,101299.91
2022-09-06T04:29:22.123Z,101302.00
2022-09-06T04:31:48.733Z,101312.53
2022-09-06T04:34:16.410Z,101308.38
2022-09-06T04:36:48.060Z,101311.31
2022-09-06T04:39:14.957Z,101310.50
2022-09-06T04:41:42.366Z,101307.50
2022-09-06T04:44:08.979Z,101311.06
2022-09-06T04:46:35.590Z,101319.03
2022-09-06T04:49:02.174Z,101316.69
2022-09-06T04:51:28.840Z,101311.22
2022-09-06T04:53:55.364Z,101311.63
2022-09-06T04:56:24.427Z,101316.69
2022-09-06T04:58:52.384Z,101320.50
2022-09-06T05:01:19.156Z,101319.69
2022-09-06T05:03:46.087Z,101309.59
2022-09-06T05:06:19.297Z,101314.69
2022-09-06T05:08:45.867Z,101313.66
2022-09-06T05:11:12.462Z,101318.16
2022-09-06T05:13:39.551Z,101320.72
2022-09-06T05:16:07.588Z,101326.66
2022-09-06T05:18:34.683Z,101324.16
2022-09-06T05:21:01.625Z,101317.84
2022-09-06T05:23:28.644Z,101334.53
2022-09-06T05:25:55.349Z,101330.13
2022-09-06T05:28:23.363Z,101330.56
2022-09-06T05:30:49.985Z,101330.19
2022-09-06T05:33:21.847Z,101339.09
2022-09-06T05:35:49.230Z,101337.00
2022-09-06T05:38:15.785Z,101342.50
2022-09-06T05:40:42.403Z,101349.28
2022-09-06T05:43:08.979Z,101341.88
2022-09-06T05:45:35.577Z,101347.47
2022-09-06T05:48:02.336Z,101343.78
2022-09-06T05:50:28.875Z,101354.22
2022-09-06T05:52:56.088Z,101356.63
2022-09-06T05:55:22.622Z,101355.31
2022-09-06T05:57:49.221Z,101354.63
2022-09-06T06:00:15.878Z,101362.66
2022-09-06T06:02:42.512Z,101356.25
2022-09-06T06:05:09.329Z,101355.34
2022-09-06T06:07:35.914Z,101360.03
2022-09-06T06:10:04.808Z,101365.13
2022-09-06T06:12:31.378Z,101367.47
2022-09-06T06:14:57.933Z,101360.00
2022-09-06T06:17:24.639Z,101359.94
2022-09-06T06:19:51.218Z,101350.34
2022-09-06T06:22:17.799Z,101347.25
2022-09-06T06:24:44.336Z,101352.88
2022-09-06T06:27:10.950Z,101355.41
2022-09-06T06:29:37.517Z,101356.88
2022-09-06T06:32:04.416Z,101361.41
2022-09-06T06:34:31.140Z,101366.47
2022-09-06T06:36:58.150Z,101351.22
2022-09-06T06:39:24.800Z,101355.22
2022-09-06T06:41:51.443Z,101360.44
2022-09-06T06:44:18.033Z,101363.16
2022-09-06T06:46:44.574Z,101367.91
2022-09-06T06:49:11.192Z,101372.75
2022-09-06T06:51:37.899Z,101367.22
2022-09-06T06:54:05.246Z,101373.03
2022-09-06T06:56:34.463Z,101372.47
2022-09-06T06:59:04.356Z,101370.28
2022-09-06T07:01:32.641Z,101381.31
2022-09-06T07:03:59.427Z,101379.97
2022-09-06T07:09:18.326Z,101384.16
2022-09-06T07:11:48.768Z,101379.84
2022-09-06T07:14:16.356Z,101376.34
2022-09-06T07:16:43.495Z,101377.34
2022-09-06T07:22:00.303Z,101377.00
2022-09-06T07:24:29.181Z,101377.59
2022-09-06T07:29:42.236Z,101384.59
2022-09-06T07:34:37.785Z,101385.97
2022-09-06T07:37:04.380Z,101385.66
2022-09-06T07:39:33.091Z,101385.00
2022-09-06T07:41:59.685Z,101380.03
2022-09-06T07:44:26.530Z,101384.53
2022-09-06T07:46:53.670Z,101374.47
2022-09-06T07:49:20.395Z,101378.44
2022-09-06T07:51:47.977Z,101381.66
2022-09-06T07:54:31.155Z,101394.41
2022-09-06T07:56:58.129Z,101395.66
2022-09-06T07:59:24.698Z,101385.34
2022-09-06T08:01:51.306Z,101394.63
2022-09-06T08:04:17.842Z,101393.47
2022-09-06T08:09:35.351Z,101389.81
2022-09-06T08:12:07.718Z,101395.81
2022-09-06T08:14:34.925Z,101398.03
2022-09-06T08:17:02.583Z,101386.44
2022-09-06T08:19:29.154Z,101391.97
2022-09-06T08:21:56.101Z,101391.97
2022-09-06T08:24:23.166Z,101393.66
2022-09-06T08:26:49.843Z,101401.06
2022-09-06T08:29:16.421Z,101393.19
2022-09-06T08:31:44.851Z,101387.03
2022-09-06T08:34:15.236Z,101390.97
2022-09-06T08:36:42.661Z,101392.34
2022-09-06T08:39:10.035Z,101394.16
2022-09-06T08:42:00.766Z,101392.72
2022-09-06T08:44:58.882Z,101387.41
2022-09-06T08:47:25.572Z,101399.88
2022-09-06T08:49:56.774Z,101398.09
2022-09-06T08:53:00.183Z,101403.28
2022-09-06T08:55:39.342Z,101394.25
2022-09-06T08:58:33.494Z,101399.25
2022-09-06T09:01:10.590Z,101405.78
2022-09-06T09:03:38.406Z,101396.53
2022-09-06T09:06:07.447Z,101401.69
2022-09-06T09:09:02.709Z,101395.31
2022-09-06T09:11:31.528Z,101393.00
2022-09-06T09:14:18.955Z,101389.03
2022-09-06T09:16:45.752Z,101383.03
2022-09-06T09:19:13.729Z,101375.78
2022-09-06T09:21:40.548Z,101371.00
2022-09-06T09:24:10.491Z,101372.09
2022-09-06T09:26:53.567Z,101369.25
2022-09-06T09:29:25.334Z,101367.03
2022-09-06T09:31:55.398Z,101358.56
2022-09-06T09:34:36.154Z,101361.91
2022-09-06T09:40:30.359Z,101354.72
2022-09-06T09:43:11.655Z,101347.81
2022-09-06T09:45:38.200Z,101348.78
2022-09-06T09:48:26.961Z,101340.50
2022-09-06T09:50:55.366Z,101337.25
2022-09-06T09:53:23.965Z,101340.91
2022-09-06T09:55:57.611Z,101330.81
2022-09-06T09:58:34.115Z,101336.19
2022-09-06T10:01:11.344Z,101334.69
2022-09-06T10:09:35.546Z,101323.88
2022-09-06T10:12:02.406Z,101322.25
2022-09-06T10:14:45.197Z,101323.41
2022-09-06T10:17:26.682Z,101327.50
2022-09-06T10:19:54.177Z,101318.09
2022-09-06T10:22:20.826Z,101311.28
2022-09-06T10:25:02.569Z,101308.19
2022-09-06T10:27:31.024Z,101302.06
2022-09-06T10:30:08.941Z,101309.59
2022-09-06T10:33:00.557Z,101300.59
2022-09-06T10:35:31.960Z,101296.09
2022-09-06T10:38:14.292Z,101287.81
2022-09-06T10:41:17.366Z,101299.63
2022-09-06T10:44:04.098Z,101287.19
2022-09-06T10:46:35.291Z,101280.84
2022-09-06T10:49:01.881Z,101283.72
2022-09-06T10:51:41.228Z,101270.41
2022-09-06T10:54:14.002Z,101273.38
2022-09-06T10:56:52.501Z,101259.19
2022-09-06T11:02:34.021Z,101262.97
2022-09-06T11:10:52.937Z,101253.09
2022-09-06T11:13:20.941Z,101249.34
2022-09-06T11:15:50.205Z,101247.50
2022-09-06T11:18:53.659Z,101231.63
2022-09-06T11:21:38.245Z,101224.69
2022-09-06T11:24:37.170Z,101226.75
2022-09-06T11:27:34.734Z,101230.50
2022-09-06T11:30:03.156Z,101235.13
2022-09-06T11:32:33.252Z,101226.06
2022-09-06T11:35:04.107Z,101224.44
2022-09-06T11:37:40.844Z,101216.47
2022-09-06T11:42:51.704Z,101202.44
2022-09-06T11:45:21.850Z,101210.50
2022-09-06T11:47:52.400Z,101215.38
2022-09-06T11:50:21.554Z,101214.97
2022-09-06T11:53:06.227Z,101201.47
2022-09-06T11:55:47.825Z,101194.00
2022-09-06T11:58:17.711Z,101200.56
2022-09-06T12:00:46.501Z,101185.69
2022-09-06T12:06:35.472Z,101183.94
2022-09-06T12:09:22.273Z,101172.16
2022-09-06T12:11:48.865Z,101177.97
2022-09-06T12:14:35.829Z,101169.16
2022-09-06T12:17:04.710Z,101160.75
2022-09-06T12:20:05.960Z,101161.03
2022-09-06T12:22:41.310Z,101169.06
2022-09-06T12:25:16.906Z,101176.28
2022-09-06T12:27:58.213Z,101165.38
2022-09-06T12:30:33.283Z,101164.81
2022-09-06T12:33:01.198Z,101162.94
2022-09-06T12:38:25.297Z,101150.03
2022-09-06T12:40:56.464Z,101147.44
2022-09-06T12:43:23.049Z,101141.97
2022-09-06T12:45:52.430Z,101134.78
2022-09-06T12:48:29.616Z,101127.09
2022-09-06T12:51:16.272Z,101125.00
2022-09-06T12:54:22.525Z,101126.94
2022-09-06T12:56:49.386Z,101128.56
2022-09-06T12:59:23.483Z,101117.78
2022-09-06T13:02:05.548Z,101122.69
2022-09-06T13:04:43.017Z,101115.56
2022-09-06T13:07:15.097Z,101116.63
2022-09-06T13:09:46.895Z,101100.47
2022-09-06T13:12:21.807Z,101094.09
2022-09-06T13:14:53.845Z,101094.03
2022-09-06T13:17:29.356Z,101084.69
2022-09-06T13:19:58.106Z,101085.94
2022-09-06T13:23:09.809Z,101087.03
2022-09-06T13:25:50.395Z,101088.03
2022-09-06T13:28:30.898Z,101070.94
2022-09-06T13:31:20.101Z,101073.28
2022-09-06T13:33:56.989Z,101060.63
2022-09-06T13:36:30.622Z,101061.69
2022-09-06T13:38:57.979Z,101057.41
2022-09-06T13:41:24.444Z,101053.78
2022-09-06T13:44:10.937Z,101036.66
2022-09-06T13:46:37.509Z,101047.59
2022-09-06T13:49:04.380Z,101049.63
2022-09-06T13:51:31.063Z,101043.66
2022-09-06T13:54:08.921Z,101042.41
2022-09-06T13:56:35.643Z,101044.81
2022-09-06T13:59:03.397Z,101039.44
2022-09-06T14:01:29.943Z,101040.38
2022-09-06T14:03:56.587Z,101035.25
2022-09-06T14:06:24.181Z,101023.03
2022-09-06T14:09:06.383Z,101026.91
2022-09-06T14:11:33.469Z,101013.63
2022-09-06T14:14:00.032Z,101010.75
2022-09-06T14:16:26.819Z,101010.97
2022-09-06T14:18:53.397Z,101009.31
2022-09-06T14:21:19.951Z,101011.84
2022-09-06T14:23:51.041Z,101015.63
2022-09-06T14:26:18.895Z,101015.09
2022-09-06T14:28:45.452Z,101010.59
2022-09-06T14:31:20.630Z,101006.56
2022-09-06T14:33:47.624Z,101012.78
2022-09-06T14:36:17.022Z,101000.13
2022-09-06T14:38:45.019Z,101009.09
2022-09-06T14:41:14.427Z,101008.34
2022-09-06T14:43:43.572Z,101004.66
2022-09-06T14:46:14.261Z,100999.69
2022-09-06T14:48:42.656Z,101002.69
2022-09-06T14:51:17.774Z,100995.72
2022-09-06T14:53:45.264Z,100995.44
2022-09-06T14:56:12.903Z,100986.53
2022-09-06T14:58:40.313Z,100990.06
2022-09-06T15:01:14.573Z,100985.28
2022-09-06T15:03:51.560Z,100988.38
2022-09-06T15:06:20.824Z,100975.69
2022-09-06T15:08:48.533Z,100976.94
2022-09-06T15:11:27.057Z,100982.25
2022-09-06T15:13:53.589Z,100976.16
2022-09-06T15:16:20.153Z,100976.66
2022-09-06T15:18:46.735Z,100974.09
2022-09-06T15:21:15.780Z,100971.84
2022-09-06T15:23:43.227Z,100967.69
2022-09-06T15:26:12.134Z,100965.44
2022-09-06T15:28:40.357Z,100960.13
2022-09-06T15:31:08.265Z,100966.28
2022-09-06T15:33:36.683Z,100959.72
2022-09-06T15:36:06.460Z,100960.19
2022-09-06T15:38:34.250Z,100953.56
2022-09-06T15:41:11.849Z,100952.50
2022-09-06T15:43:42.203Z,100947.47
2022-09-06T15:46:09.911Z,100949.13
2022-09-06T15:48:51.078Z,100945.78
2022-09-06T15:51:20.147Z,100948.84
2022-09-06T15:53:47.363Z,100945.22
2022-09-06T15:56:16.266Z,100940.50
2022-09-06T15:58:43.401Z,100933.78
2022-09-06T16:01:21.815Z,100939.38
2022-09-06T16:03:50.898Z,100929.66
2022-09-06T16:08:56.133Z,100930.50
2022-09-06T16:11:22.692Z,100926.94
2022-09-06T16:13:49.484Z,100923.00
2022-09-06T16:16:16.938Z,100926.63
2022-09-06T16:18:47.119Z,100929.72
2022-09-06T16:21:19.652Z,100929.19
2022-09-06T16:24:00.193Z,100926.97
2022-09-06T16:26:29.179Z,100918.06
2022-09-06T16:28:56.945Z,100928.94
2022-09-06T16:31:24.358Z,100919.19
2022-09-06T16:33:53.793Z,100916.72
2022-09-06T16:36:21.830Z,100922.00
2022-09-06T16:38:49.085Z,100926.72
2022-09-06T16:41:20.917Z,100921.16
2022-09-06T16:43:49.300Z,100921.75
2022-09-06T16:46:16.485Z,100918.38
2022-09-06T16:48:43.207Z,100923.41
2022-09-06T16:51:10.039Z,100912.84
2022-09-06T16:53:37.550Z,100914.28
2022-09-06T16:56:04.367Z,100925.94
2022-09-06T16:58:31.198Z,100918.44
2022-09-06T17:00:57.842Z,100919.53
2022-09-06T17:03:24.481Z,100930.34
2022-09-06T17:05:52.260Z,100928.97
2022-09-06T17:08:19.418Z,100926.19
2022-09-06T17:10:46.347Z,100932.53
2022-09-06T17:13:13.270Z,100924.78
2022-09-06T17:15:58.519Z,100928.94
2022-09-06T17:18:26.662Z,100928.06
2022-09-06T17:21:05.077Z,100934.16
2022-09-06T17:23:32.549Z,100929.97
2022-09-06T17:25:59.116Z,100926.06
2022-09-06T17:28:26.107Z,100935.19
2022-09-06T17:30:53.460Z,100927.41
2022-09-06T17:33:21.038Z,100915.75
2022-09-06T17:35:48.049Z,100924.31
2022-09-06T17:38:16.303Z,100922.91
2022-09-06T17:40:43.463Z,100935.94
2022-09-06T17:43:10.024Z,100928.16
2022-09-06T17:45:42.598Z,100923.41
2022-09-06T17:48:09.346Z,100935.88
2022-09-06T17:50:35.961Z,100920.50
2022-09-06T17:53:02.942Z,100928.72
2022-09-06T17:55:29.991Z,100922.78
2022-09-06T17:57:56.897Z,100920.41
2022-09-06T18:00:24.753Z,100932.78
2022-09-06T18:02:51.332Z,100934.88
2022-09-06T18:05:18.542Z,100924.47
2022-09-06T18:07:45.579Z,100934.28
2022-09-06T18:10:14.503Z,100937.41
2022-09-06T18:12:44.207Z,100937.28
2022-09-06T18:15:10.926Z,100936.25
2022-09-06T18:17:37.561Z,100939.25
2022-09-06T18:20:05.239Z,100933.22
2022-09-06T18:22:32.517Z,100945.97
2022-09-06T18:24:59.048Z,100945.50
2022-09-06T18:27:26.056Z,100958.94
2022-09-06T18:29:52.602Z,100957.38
2022-09-06T18:32:19.356Z,100961.47
2022-09-06T18:34:45.910Z,100965.81
2022-09-06T18:37:12.434Z,100976.56
2022-09-06T18:39:39.600Z,100973.88
2022-09-06T18:42:11.092Z,100978.13
2022-09-06T18:44:38.229Z,100971.38
2022-09-06T18:47:07.638Z,100967.16
2022-09-06T18:49:35.108Z,100967.97
2022-09-06T18:52:05.684Z,100976.94
2022-09-06T18:54:33.035Z,100958.56
2022-09-06T18:56:59.858Z,100975.03
2022-09-06T18:59:26.912Z,100981.66
2022-09-06T19:01:54.027Z,100981.31
2022-09-06T19:04:20.660Z,100986.47
2022-09-06T19:06:47.323Z,101005.28
2022-09-06T19:09:16.024Z,101003.66
2022-09-06T19:11:43.472Z,101012.03
2022-09-06T19:14:10.156Z,101015.03
2022-09-06T19:16:36.919Z,101017.53
2022-09-06T19:19:06.218Z,101014.44
2022-09-06T19:21:36.591Z,101016.94
2022-09-06T19:24:08.315Z,101018.03
2022-09-06T19:26:37.853Z,101010.38
2022-09-06T19:29:08.372Z,101002.44
2022-09-06T19:31:37.368Z,101002.78
2022-09-06T19:34:04.456Z,101016.66
2022-09-06T19:36:31.966Z,101015.38
2022-09-06T19:39:03.944Z,101017.75
2022-09-06T19:41:33.776Z,101019.72
2022-09-06T19:44:00.509Z,101025.94
2022-09-06T19:46:27.880Z,101027.00
2022-09-06T19:48:56.370Z,101035.41
2022-09-06T19:51:24.233Z,101035.16
2022-09-06T19:53:53.974Z,101025.44
2022-09-06T19:56:23.688Z,101023.28
2022-09-06T19:58:55.873Z,101015.00
2022-09-06T20:01:25.180Z,101016.94
2022-09-06T20:03:52.583Z,101016.81
2022-09-06T20:06:19.435Z,101009.41
2022-09-06T20:08:50.530Z,101012.75
2022-09-06T20:11:17.738Z,101022.09
2022-09-06T20:13:44.511Z,101007.50
2022-09-06T20:16:12.495Z,101002.19
2022-09-06T20:18:39.982Z,100999.59
2022-09-06T20:21:07.165Z,101000.31
2022-09-06T20:23:34.524Z,100996.09
2022-09-06T20:26:13.389Z,101005.44
2022-09-06T20:28:40.273Z,100989.28
2022-09-06T20:31:09.318Z,100998.03
2022-09-06T20:33:36.030Z,101002.94
2022-09-06T20:36:06.028Z,101000.81
2022-09-06T20:38:34.596Z,101004.88
2022-09-06T20:41:05.519Z,101010.97
2022-09-06T20:43:34.423Z,101010.38
2022-09-06T20:46:04.251Z,101011.44
2022-09-06T20:48:32.711Z,101003.78
2022-09-06T20:51:02.058Z,100989.13
2022-09-06T20:53:30.420Z,100998.94
2022-09-06T20:56:00.889Z,101004.09
2022-09-06T20:58:28.288Z,101010.81
2022-09-06T21:00:55.269Z,101011.34
2022-09-06T21:03:22.021Z,101018.41
2022-09-06T21:05:49.073Z,101017.28
2022-09-06T21:08:16.705Z,101020.59
2022-09-06T21:10:43.342Z,101030.75
2022-09-06T21:13:11.273Z,101022.63
2022-09-06T21:15:40.996Z,101034.69
2022-09-06T21:18:09.410Z,101035.59
2022-09-06T21:20:36.033Z,101028.97
2022-09-06T21:23:02.982Z,101037.56
2022-09-06T21:25:29.526Z,101033.13
2022-09-06T21:27:56.085Z,101024.59
2022-09-06T21:30:22.654Z,101027.19
2022-09-06T21:32:49.396Z,101031.84
2022-09-06T21:35:16.062Z,101036.13
2022-09-06T21:37:43.827Z,101036.53
2022-09-06T21:40:10.532Z,101030.63
2022-09-06T21:42:37.082Z,101033.38
2022-09-06T21:45:03.843Z,101035.50
2022-09-06T21:47:31.544Z,101037.50
2022-09-06T21:49:58.166Z,101030.13
2022-09-06T21:52:24.990Z,101027.88
2022-09-06T21:54:52.535Z,101026.34
2022-09-06T21:57:21.416Z,101030.31
2022-09-06T21:59:47.960Z,101030.91
2022-09-06T22:02:15.471Z,101033.47
2022-09-06T22:04:42.968Z,101034.75
2022-09-06T22:07:09.533Z,101025.03
2022-09-06T22:09:36.083Z,101022.38
2022-09-06T22:12:02.896Z,101022.59
2022-09-06T22:14:29.467Z,101018.41
2022-09-06T22:16:56.041Z,101016.97
2022-09-06T22:19:22.713Z,101008.81
2022-09-06T22:21:52.745Z,101020.69
2022-09-06T22:24:19.319Z,101018.38
2022-09-06T22:26:45.994Z,101008.78
2022-09-06T22:29:13.838Z,101007.25
2022-09-06T22:31:40.619Z,101002.97
2022-09-06T22:34:08.433Z,100996.25
2022-09-06T22:36:35.030Z,100997.25
2022-09-06T22:39:01.594Z,100991.75
2022-09-06T22:41:31.677Z,101000.53
2022-09-06T22:44:02.497Z,100982.28
2022-09-06T22:46:29.390Z,100982.66
2022-09-06T22:48:56.036Z,100982.66
2022-09-06T22:51:22.677Z,100973.19
2022-09-06T22:53:49.283Z,100980.63
2022-09-06T22:56:15.851Z,100978.56
2022-09-06T22:58:42.412Z,100978.78
2022-09-06T23:01:11.422Z,100976.25
2022-09-06T23:03:38.533Z,100973.50
2022-09-06T23:06:05.532Z,100981.31
2022-09-06T23:08:32.758Z,100984.78
2022-09-06T23:11:04.562Z,100975.50
2022-09-06T23:13:31.104Z,100985.88
2022-09-06T23:16:03.019Z,100987.78
2022-09-06T23:18:29.632Z,100986.13
2022-09-06T23:20:56.240Z,100992.91
2022-09-06T23:23:22.767Z,100996.78
2022-09-06T23:25:49.299Z,100996.78
2022-09-06T23:28:15.844Z,100994.72
2022-09-06T23:30:42.377Z,100993.88
2022-09-06T23:33:08.931Z,100994.25
2022-09-06T23:35:35.481Z,100996.41
2022-09-06T23:38:02.029Z,100990.91
2022-09-06T23:40:28.561Z,100990.91
2022-09-06T23:42:55.160Z,100989.25
2022-09-06T23:45:21.745Z,100984.25
2022-09-06T23:47:48.301Z,100978.63
2022-09-06T23:50:15.229Z,100974.28
2022-09-06T23:52:41.807Z,100979.75
2022-09-06T23:55:09.376Z,100981.28
2022-09-06T23:57:35.940Z,100976.91
